Time;durP1;ratioP1;P1;durP2;ratioP2;P2;SDS_P1;SDS_P2;PMS_P1;PMS_P2;Temp;Humidity;BMP_temperature;BMP_pressure;BME280_temperature;BME280_humidity;BME280_pressure;Samples;Min_cycle;Max_cycle;Signal;HPM_P1;HPM_P2
2023/08/09 00:00:34;;;;;;;3.23;2.50;;;;;;;;;;5041450;28;20464;-70
2023/08/09 00:03:00;;;;;;;4.77;2.60;;;;;;;;;;5041392;28;20465;-70
2023/08/09 00:05:26;;;;;;;5.17;2.63;;;;;;;;;;5041672;28;20522;-70
2023/08/09 00:07:53;;;;;;;3.43;2.90;;;;;;;;;;5040720;28;20517;-70
2023/08/09 00:10:19;;;;;;;6.07;2.80;;;;;;;;;;5040978;28;20489;-70
2023/08/09 00:12:46;;;;;;;5.93;3.17;;;;;;;;;;5040541;28;20505;-70
2023/08/09 00:15:12;;;;;;;3.10;2.63;;;;;;;;;;5041225;28;20477;-70
2023/08/09 00:17:40;;;;;;;4.57;2.50;;;;;;;;;;5038021;28;20519;-70
2023/08/09 00:20:08;;;;;;;4.67;2.30;;;;;;;;;;5036614;28;20481;-70
2023/08/09 00:22:34;;;;;;;3.10;2.50;;;;;;;;;;5036335;28;20446;-70
2023/08/09 00:25:01;;;;;;;3.00;2.63;;;;;;;;;;5040965;28;20528;-70
2023/08/09 00:27:28;;;;;;;3.70;3.07;;;;;;;;;;5040966;28;20449;-70
2023/08/09 00:29:54;;;;;;;3.70;2.87;;;;;;;;;;5040481;28;20514;-70
2023/08/09 00:32:20;;;;;;;4.47;3.67;;;;;;;;;;5040497;28;20565;-70
2023/08/09 00:34:48;;;;;;;4.13;3.23;;;;;;;;;;5040963;28;20549;-70
2023/08/09 00:37:15;;;;;;;7.33;3.57;;;;;;;;;;5040921;28;20802;-70
2023/08/09 00:39:41;;;;;;;4.23;3.57;;;;;;;;;;5040483;28;20496;-71
2023/08/09 00:42:07;;;;;;;3.67;3.30;;;;;;;;;;5034181;28;20485;-70
2023/08/09 00:44:34;;;;;;;5.57;2.77;;;;;;;;;;5040471;28;21117;-70
2023/08/09 00:47:00;;;;;;;5.20;3.13;;;;;;;;;;5040723;28;20473;-70
2023/08/09 00:49:27;;;;;;;4.70;3.50;;;;;;;;;;5038579;28;20493;-70
2023/08/09 00:51:55;;;;;;;5.03;3.10;;;;;;;;;;5040755;28;21365;-70
2023/08/09 00:54:21;;;;;;;5.17;3.27;;;;;;;;;;5039611;28;20893;-70
2023/08/09 00:56:47;;;;;;;3.83;3.13;;;;;;;;;;5040358;28;20537;-70
2023/08/09 00:59:14;;;;;;;4.40;3.70;;;;;;;;;;5040559;28;20520;-69
2023/08/09 01:01:40;;;;;;;5.20;3.33;;;;;;;;;;5040401;28;20554;-69
2023/08/09 01:04:07;;;;;;;5.10;3.67;;;;;;;;;;5040308;28;21065;-70
2023/08/09 01:06:38;;;;;;;4.87;3.53;;;;;;;;;;5040315;28;21163;-70
2023/08/09 01:09:10;;;;;;;4.17;3.50;;;;;;;;;;5039644;28;20484;-70
2023/08/09 01:11:41;;;;;;;4.03;3.33;;;;;;;;;;5040374;28;20476;-71
2023/08/09 01:14:08;;;;;;;4.50;3.50;;;;;;;;;;5039808;28;20521;-71
2023/08/09 01:16:37;;;;;;;7.77;3.50;;;;;;;;;;5040381;28;20534;-70
2023/08/09 01:19:08;;;;;;;4.47;3.50;;;;;;;;;;5040136;28;21029;-71
2023/08/09 01:21:36;;;;;;;5.63;3.83;;;;;;;;;;5040758;28;20866;-71
2023/08/09 01:24:04;;;;;;;5.27;3.40;;;;;;;;;;5039880;28;20469;-71
2023/08/09 01:26:30;;;;;;;4.97;3.47;;;;;;;;;;5040394;28;20514;-70
2023/08/09 01:28:57;;;;;;;3.57;3.27;;;;;;;;;;5034441;28;20464;-71
2023/08/09 01:31:23;;;;;;;4.33;3.87;;;;;;;;;;5036366;28;20513;-71
2023/08/09 01:33:49;;;;;;;5.63;3.60;;;;;;;;;;5043604;28;20904;-71
2023/08/09 01:36:19;;;;;;;6.10;4.27;;;;;;;;;;5044151;28;20484;-70
2023/08/09 01:38:48;;;;;;;4.77;4.13;;;;;;;;;;5031233;28;20533;-71
2023/08/09 01:41:16;;;;;;;4.67;4.00;;;;;;;;;;5044167;28;20545;-71
2023/08/09 01:43:43;;;;;;;6.80;4.87;;;;;;;;;;5043198;28;20576;-71
2023/08/09 01:46:10;;;;;;;6.80;4.43;;;;;;;;;;5042997;28;20477;-71
2023/08/09 01:48:36;;;;;;;5.07;4.00;;;;;;;;;;5040539;28;20538;-71
2023/08/09 01:51:03;;;;;;;5.03;4.40;;;;;;;;;;5042528;28;20486;-71
2023/08/09 01:53:29;;;;;;;5.07;4.10;;;;;;;;;;5039167;28;20486;-72
2023/08/09 01:55:56;;;;;;;4.70;4.20;;;;;;;;;;5042227;28;20470;-71
2023/08/09 01:58:24;;;;;;;4.37;3.97;;;;;;;;;;5038037;28;20485;-71
2023/08/09 02:00:50;;;;;;;5.63;4.70;;;;;;;;;;5038403;28;20455;-70
2023/08/09 02:03:18;;;;;;;5.70;5.10;;;;;;;;;;5038329;28;20466;-71
2023/08/09 02:05:45;;;;;;;4.70;4.20;;;;;;;;;;5038312;28;20494;-70
2023/08/09 02:08:14;;;;;;;8.10;5.70;;;;;;;;;;5040875;28;21141;-71
2023/08/09 02:10:40;;;;;;;9.37;6.67;;;;;;;;;;5041010;28;20552;-70
2023/08/09 02:13:07;;;;;;;7.40;5.77;;;;;;;;;;5042110;28;20497;-70
2023/08/09 02:15:35;;;;;;;7.13;6.23;;;;;;;;;;5034925;28;20541;-70
2023/08/09 02:18:01;;;;;;;6.80;6.03;;;;;;;;;;5038819;28;20453;-70
2023/08/09 02:20:28;;;;;;;7.30;5.73;;;;;;;;;;5043076;28;20478;-71
2023/08/09 02:22:55;;;;;;;7.53;6.40;;;;;;;;;;5040490;28;20543;-70
2023/08/09 02:25:22;;;;;;;7.67;6.87;;;;;;;;;;5034618;28;20461;-70
2023/08/09 02:27:49;;;;;;;8.60;6.73;;;;;;;;;;5041147;28;20457;-71
2023/08/09 02:30:15;;;;;;;6.80;6.10;;;;;;;;;;5038449;28;20450;-71
2023/08/09 02:32:43;;;;;;;7.57;6.53;;;;;;;;;;5039361;28;20573;-71
2023/08/09 02:35:11;;;;;;;9.13;7.07;;;;;;;;;;5039424;28;20525;-70
2023/08/09 02:37:37;;;;;;;9.23;7.07;;;;;;;;;;5035617;28;20462;-70
2023/08/09 02:40:04;;;;;;;7.63;6.83;;;;;;;;;;5040290;28;20477;-71
2023/08/09 02:42:30;;;;;;;10.50;6.63;;;;;;;;;;5040668;28;20517;-71
2023/08/09 02:44:57;;;;;;;11.43;7.50;;;;;;;;;;5041082;28;20496;-70
2023/08/09 02:47:24;;;;;;;8.30;7.30;;;;;;;;;;5040311;28;20970;-70
2023/08/09 02:49:51;;;;;;;8.40;7.00;;;;;;;;;;5039490;28;20454;-70
2023/08/09 02:52:18;;;;;;;7.63;6.83;;;;;;;;;;5042460;28;20473;-70
2023/08/09 02:54:44;;;;;;;7.87;7.07;;;;;;;;;;5037152;28;20458;-70
2023/08/09 02:57:11;;;;;;;11.53;7.20;;;;;;;;;;5042721;28;20449;-70
2023/08/09 02:59:38;;;;;;;7.97;7.17;;;;;;;;;;5041991;28;20453;-69
2023/08/09 03:02:05;;;;;;;9.03;7.20;;;;;;;;;;5042619;28;20450;-70
2023/08/09 03:04:32;;;;;;;9.50;8.30;;;;;;;;;;5042317;28;20454;-70
2023/08/09 03:07:00;;;;;;;8.47;7.60;;;;;;;;;;5042612;28;20446;-69
2023/08/09 03:09:26;;;;;;;10.27;7.53;;;;;;;;;;5041841;28;20458;-70
2023/08/09 03:11:53;;;;;;;8.17;7.37;;;;;;;;;;5041939;28;20489;-70
2023/08/09 03:14:19;;;;;;;8.53;7.67;;;;;;;;;;5041117;28;20477;-70
2023/08/09 03:16:46;;;;;;;8.00;7.20;;;;;;;;;;5042306;28;20477;-70
2023/08/09 03:19:12;;;;;;;7.80;7.10;;;;;;;;;;5041631;28;20492;-70
2023/08/09 03:21:38;;;;;;;8.00;7.20;;;;;;;;;;5040223;28;20513;-70
2023/08/09 03:24:07;;;;;;;9.90;7.67;;;;;;;;;;5032142;28;20485;-70
2023/08/09 03:26:33;;;;;;;9.23;7.43;;;;;;;;;;5041744;28;20488;-70
2023/08/09 03:28:59;;;;;;;8.57;7.13;;;;;;;;;;5041748;28;20514;-70
2023/08/09 03:31:26;;;;;;;8.83;7.27;;;;;;;;;;5039907;28;20493;-70
2023/08/09 03:33:52;;;;;;;9.37;7.90;;;;;;;;;;5041509;28;21117;-70
2023/08/09 03:36:20;;;;;;;10.60;7.70;;;;;;;;;;5041537;28;20453;-70
2023/08/09 03:38:51;;;;;;;8.33;7.10;;;;;;;;;;5041334;28;20457;-70
2023/08/09 03:41:18;;;;;;;11.90;8.43;;;;;;;;;;5041271;28;20454;-70
2023/08/09 03:43:45;;;;;;;8.33;7.03;;;;;;;;;;5040973;28;20581;-69
2023/08/09 03:46:11;;;;;;;9.00;8.03;;;;;;;;;;5041405;28;20552;-70
2023/08/09 03:48:38;;;;;;;9.80;7.87;;;;;;;;;;5041253;28;21061;-70
2023/08/09 03:51:04;;;;;;;9.40;8.20;;;;;;;;;;5037701;28;20450;-70
2023/08/09 03:53:31;;;;;;;9.20;8.27;;;;;;;;;;5032589;28;20625;-70
2023/08/09 03:55:57;;;;;;;8.30;7.50;;;;;;;;;;5039302;28;20530;-70
2023/08/09 03:58:25;;;;;;;12.77;8.27;;;;;;;;;;5041056;28;20469;-70
2023/08/09 04:00:52;;;;;;;12.10;8.13;;;;;;;;;;5038156;28;20477;-70
2023/08/09 04:03:18;;;;;;;10.53;8.37;;;;;;;;;;5040995;28;20441;-70
2023/08/09 04:05:45;;;;;;;11.10;8.00;;;;;;;;;;5030345;28;20497;-70
2023/08/09 04:08:11;;;;;;;8.30;7.33;;;;;;;;;;5035631;28;20462;-70
2023/08/09 04:10:38;;;;;;;7.30;6.60;;;;;;;;;;5033233;28;20477;-70
2023/08/09 04:13:04;;;;;;;8.87;7.97;;;;;;;;;;5040178;28;20532;-71
2023/08/09 04:15:32;;;;;;;11.73;8.70;;;;;;;;;;5040090;28;20476;-71
2023/08/09 04:17:58;;;;;;;7.87;7.07;;;;;;;;;;5039307;28;20544;-70
2023/08/09 04:20:26;;;;;;;11.20;7.10;;;;;;;;;;5039070;28;20489;-70
2023/08/09 04:22:53;;;;;;;8.73;7.83;;;;;;;;;;5038569;28;20454;-70
2023/08/09 04:25:19;;;;;;;8.93;7.07;;;;;;;;;;5035400;28;20975;-70
2023/08/09 04:27:46;;;;;;;8.47;7.03;;;;;;;;;;5033467;28;20479;-69
2023/08/09 04:30:14;;;;;;;7.63;6.70;;;;;;;;;;5030030;28;20516;-69
2023/08/09 04:32:41;;;;;;;8.03;6.70;;;;;;;;;;5029666;28;20482;-69
2023/08/09 04:35:09;;;;;;;8.13;7.33;;;;;;;;;;5033309;28;20457;-70
2023/08/09 04:37:36;;;;;;;6.77;6.17;;;;;;;;;;5028169;28;20480;-70
2023/08/09 04:40:02;;;;;;;8.50;7.13;;;;;;;;;;5038403;28;20457;-70
2023/08/09 04:42:30;;;;;;;11.03;7.53;;;;;;;;;;5039642;28;20446;-69
2023/08/09 04:44:56;;;;;;;7.50;6.20;;;;;;;;;;5039333;28;21041;-69
2023/08/09 04:47:22;;;;;;;6.63;5.67;;;;;;;;;;5037291;28;20477;-69
2023/08/09 04:49:51;;;;;;;6.67;5.97;;;;;;;;;;5034173;28;20914;-70
2023/08/09 04:52:18;;;;;;;6.20;5.60;;;;;;;;;;5039698;28;20481;-69
2023/08/09 04:54:44;;;;;;;6.83;5.50;;;;;;;;;;5037894;28;21010;-69
2023/08/09 04:57:10;;;;;;;6.90;5.40;;;;;;;;;;5030718;28;20481;-69
2023/08/09 04:59:37;;;;;;;6.60;5.63;;;;;;;;;;5034161;28;20465;-69
2023/08/09 05:02:05;;;;;;;7.80;6.07;;;;;;;;;;5033580;28;20458;-69
2023/08/09 05:04:31;;;;;;;9.43;5.83;;;;;;;;;;5039835;28;20541;-69
2023/08/09 05:07:00;;;;;;;11.13;6.23;;;;;;;;;;5042629;28;20469;-69
2023/08/09 05:09:27;;;;;;;6.43;5.83;;;;;;;;;;5036141;28;20454;-71
2023/08/09 05:11:53;;;;;;;6.53;5.70;;;;;;;;;;5037508;28;20651;-69
2023/08/09 05:14:19;;;;;;;5.33;4.80;;;;;;;;;;5039705;28;20946;-69
2023/08/09 05:16:46;;;;;;;9.33;5.50;;;;;;;;;;5041115;28;20458;-69
2023/08/09 05:19:12;;;;;;;6.27;5.60;;;;;;;;;;5042237;28;20517;-70
2023/08/09 05:21:38;;;;;;;5.50;5.00;;;;;;;;;;5040051;28;20469;-70
2023/08/09 05:24:07;;;;;;;5.20;4.70;;;;;;;;;;5042860;28;20614;-69
2023/08/09 05:26:33;;;;;;;5.03;4.20;;;;;;;;;;5046540;28;20480;-69
2023/08/09 05:29:00;;;;;;;4.10;3.70;;;;;;;;;;5042296;28;20519;-71
2023/08/09 05:31:26;;;;;;;6.43;4.67;;;;;;;;;;5043596;28;20477;-70
2023/08/09 05:33:54;;;;;;;8.73;4.23;;;;;;;;;;5038431;28;20486;-71
2023/08/09 05:36:20;;;;;;;4.30;3.90;;;;;;;;;;5042307;28;20458;-71
2023/08/09 05:38:46;;;;;;;4.20;3.33;;;;;;;;;;5045711;28;20507;-70
2023/08/09 05:41:14;;;;;;;4.37;3.97;;;;;;;;;;5035683;28;21147;-70
2023/08/09 05:43:41;;;;;;;5.67;4.30;;;;;;;;;;5041692;28;20481;-70
2023/08/09 05:46:09;;;;;;;8.33;4.70;;;;;;;;;;5042622;28;20481;-70
2023/08/09 05:48:37;;;;;;;3.90;3.60;;;;;;;;;;5040007;28;20482;-70
2023/08/09 05:51:03;;;;;;;4.10;3.70;;;;;;;;;;5038912;28;20892;-70
2023/08/09 05:53:29;;;;;;;4.93;4.00;;;;;;;;;;5033078;28;20510;-70
2023/08/09 05:55:56;;;;;;;4.80;4.30;;;;;;;;;;5033707;28;21142;-70
2023/08/09 05:58:23;;;;;;;4.80;4.40;;;;;;;;;;5036927;28;20523;-70
2023/08/09 06:00:50;;;;;;;5.63;4.20;;;;;;;;;;5039456;28;20462;-71
2023/08/09 06:03:16;;;;;;;5.33;3.80;;;;;;;;;;5051912;28;20513;-71
2023/08/09 06:05:43;;;;;;;4.93;3.53;;;;;;;;;;5042284;28;20489;-70
2023/08/09 06:08:09;;;;;;;4.53;3.60;;;;;;;;;;5042467;28;20580;-71
2023/08/09 06:10:35;;;;;;;4.67;3.33;;;;;;;;;;5042828;28;20902;-71
2023/08/09 06:13:02;;;;;;;6.93;3.93;;;;;;;;;;5040986;28;20573;-71
2023/08/09 06:15:30;;;;;;;4.47;4.00;;;;;;;;;;5036928;28;21352;-71
2023/08/09 06:17:56;;;;;;;6.73;4.00;;;;;;;;;;5040278;28;20464;-70
2023/08/09 06:20:23;;;;;;;4.60;3.97;;;;;;;;;;5026367;28;20471;-70
2023/08/09 06:22:49;;;;;;;6.30;3.60;;;;;;;;;;5038378;28;21132;-70
2023/08/09 06:25:16;;;;;;;4.87;3.83;;;;;;;;;;5043390;28;20445;-70
2023/08/09 06:27:43;;;;;;;5.33;3.60;;;;;;;;;;5045903;28;20524;-70
2023/08/09 06:30:09;;;;;;;3.57;3.27;;;;;;;;;;5043680;28;20545;-71
2023/08/09 06:32:37;;;;;;;5.53;3.90;;;;;;;;;;5042348;28;20458;-71
2023/08/09 06:35:04;;;;;;;4.10;3.37;;;;;;;;;;5041701;28;20474;-71
2023/08/09 06:37:30;;;;;;;3.70;3.30;;;;;;;;;;5042111;28;21182;-70
2023/08/09 06:39:58;;;;;;;5.23;3.33;;;;;;;;;;5042239;28;20493;-71
2023/08/09 06:42:25;;;;;;;5.13;3.97;;;;;;;;;;5040858;28;20462;-71
2023/08/09 06:44:51;;;;;;;3.73;3.43;;;;;;;;;;5042119;28;20478;-71
2023/08/09 06:47:17;;;;;;;3.57;3.27;;;;;;;;;;5031744;28;20497;-71
2023/08/09 06:49:46;;;;;;;3.53;3.17;;;;;;;;;;5040770;28;20470;-71
2023/08/09 06:52:12;;;;;;;5.70;3.10;;;;;;;;;;5037174;28;20458;-71
2023/08/09 06:54:39;;;;;;;3.43;3.10;;;;;;;;;;5041225;28;20482;-71
2023/08/09 06:57:05;;;;;;;3.53;2.90;;;;;;;;;;5039608;28;20469;-71
2023/08/09 06:59:32;;;;;;;4.60;3.10;;;;;;;;;;5041667;28;20450;-71
2023/08/09 07:01:59;;;;;;;3.10;2.80;;;;;;;;;;5043996;28;20469;-71
2023/08/09 07:04:26;;;;;;;4.80;3.20;;;;;;;;;;5040951;28;20458;-71
2023/08/09 07:06:54;;;;;;;3.30;3.00;;;;;;;;;;5045810;28;20461;-71
2023/08/09 07:09:21;;;;;;;5.70;2.90;;;;;;;;;;5040349;28;20454;-70
2023/08/09 07:11:47;;;;;;;3.73;3.27;;;;;;;;;;5040354;28;20469;-70
2023/08/09 07:14:13;;;;;;;3.13;2.70;;;;;;;;;;5038449;28;20517;-71
2023/08/09 07:16:40;;;;;;;3.20;2.90;;;;;;;;;;5037411;28;20533;-71
2023/08/09 07:19:06;;;;;;;3.67;2.63;;;;;;;;;;5039685;28;20485;-71
2023/08/09 07:21:33;;;;;;;4.00;2.97;;;;;;;;;;5040461;28;20958;-71
2023/08/09 07:24:00;;;;;;;4.43;3.13;;;;;;;;;;5040393;28;20482;-70
2023/08/09 07:26:27;;;;;;;4.67;3.17;;;;;;;;;;5040208;28;20564;-71
2023/08/09 07:28:54;;;;;;;5.50;3.40;;;;;;;;;;5029615;28;21006;-71
2023/08/09 07:31:20;;;;;;;3.73;2.70;;;;;;;;;;5040788;28;20453;-71
2023/08/09 07:33:47;;;;;;;3.57;3.20;;;;;;;;;;5040128;28;20567;-71
2023/08/09 07:36:13;;;;;;;3.00;2.67;;;;;;;;;;5036925;28;20576;-70
2023/08/09 07:38:39;;;;;;;2.93;2.40;;;;;;;;;;5045662;28;20482;-71
2023/08/09 07:41:07;;;;;;;3.07;2.50;;;;;;;;;;5040692;28;20471;-71
2023/08/09 07:43:34;;;;;;;3.33;2.60;;;;;;;;;;5039764;28;20454;-71
2023/08/09 07:46:03;;;;;;;3.43;2.70;;;;;;;;;;5039786;28;20474;-70
2023/08/09 07:48:30;;;;;;;3.93;2.50;;;;;;;;;;5039866;28;20481;-70
2023/08/09 07:50:56;;;;;;;6.90;2.60;;;;;;;;;;5043872;28;20529;-70
2023/08/09 07:53:23;;;;;;;3.30;2.70;;;;;;;;;;5041104;28;20500;-70
2023/08/09 07:55:49;;;;;;;3.60;2.50;;;;;;;;;;5039619;28;20603;-70
2023/08/09 07:58:17;;;;;;;2.53;2.33;;;;;;;;;;5040576;28;20454;-70
2023/08/09 08:00:43;;;;;;;4.70;2.17;;;;;;;;;;5040084;28;20751;-71
2023/08/09 08:03:10;;;;;;;2.97;2.10;;;;;;;;;;5039038;28;20521;-71
2023/08/09 08:05:37;;;;;;;3.37;2.17;;;;;;;;;;5040402;28;20528;-70
2023/08/09 08:08:04;;;;;;;2.93;2.20;;;;;;;;;;5039915;28;20544;-70
2023/08/09 08:10:31;;;;;;;2.63;2.37;;;;;;;;;;5039427;28;20477;-70
2023/08/09 08:12:58;;;;;;;2.47;1.90;;;;;;;;;;5039366;28;20490;-70
2023/08/09 08:15:25;;;;;;;2.97;2.10;;;;;;;;;;5040391;28;20458;-70
2023/08/09 08:17:52;;;;;;;2.33;1.83;;;;;;;;;;5039971;28;20513;-70
2023/08/09 08:20:20;;;;;;;2.20;1.93;;;;;;;;;;5038910;28;20561;-69
2023/08/09 08:22:47;;;;;;;4.40;1.80;;;;;;;;;;5039788;28;20542;-70
2023/08/09 08:25:14;;;;;;;2.80;1.87;;;;;;;;;;5039739;28;20457;-70
2023/08/09 08:27:42;;;;;;;2.00;1.73;;;;;;;;;;5040478;28;20521;-70
2023/08/09 08:30:09;;;;;;;2.90;1.70;;;;;;;;;;5039802;28;20461;-70
2023/08/09 08:32:36;;;;;;;2.90;1.70;;;;;;;;;;5035503;28;20815;-70
2023/08/09 08:35:03;;;;;;;5.13;1.63;;;;;;;;;;5039058;28;20500;-70
2023/08/09 08:37:29;;;;;;;1.90;1.50;;;;;;;;;;5039843;28;20481;-70
2023/08/09 08:39:56;;;;;;;5.00;1.70;;;;;;;;;;5039030;28;20989;-70
2023/08/09 08:42:22;;;;;;;2.43;2.00;;;;;;;;;;5029726;28;20474;-70
2023/08/09 08:44:49;;;;;;;2.20;1.80;;;;;;;;;;5040117;28;21165;-70
2023/08/09 08:47:16;;;;;;;2.97;1.60;;;;;;;;;;5039823;28;20454;-71
2023/08/09 08:49:45;;;;;;;2.97;1.70;;;;;;;;;;5038775;28;21030;-70
2023/08/09 08:52:13;;;;;;;4.27;1.80;;;;;;;;;;5033805;28;20451;-70
2023/08/09 08:54:40;;;;;;;4.80;1.47;;;;;;;;;;5037840;28;20485;-71
2023/08/09 08:57:07;;;;;;;4.10;2.23;;;;;;;;;;5039072;28;20453;-71
2023/08/09 08:59:34;;;;;;;2.30;1.70;;;;;;;;;;5038141;28;20473;-70
2023/08/09 09:02:02;;;;;;;3.10;1.60;;;;;;;;;;5045252;28;20512;-70
2023/08/09 09:04:28;;;;;;;2.70;1.40;;;;;;;;;;5048219;28;20454;-70
2023/08/09 09:06:57;;;;;;;3.33;1.73;;;;;;;;;;5038512;28;20460;-70
2023/08/09 09:09:24;;;;;;;2.17;1.70;;;;;;;;;;5041628;28;20464;-70
2023/08/09 09:11:52;;;;;;;3.23;1.60;;;;;;;;;;5038823;28;20504;-70
2023/08/09 09:14:19;;;;;;;2.33;1.63;;;;;;;;;;5036433;28;20520;-71
2023/08/09 09:16:45;;;;;;;3.43;1.17;;;;;;;;;;5044202;28;20461;-71
2023/08/09 09:19:12;;;;;;;3.00;1.63;;;;;;;;;;5038060;28;20495;-71
2023/08/09 09:21:40;;;;;;;1.43;1.20;;;;;;;;;;5037934;28;21026;-70
2023/08/09 09:24:11;;;;;;;3.93;1.50;;;;;;;;;;5039978;28;20454;-70
2023/08/09 09:26:38;;;;;;;3.30;1.50;;;;;;;;;;5031737;28;20477;-70
2023/08/09 09:29:07;;;;;;;2.60;1.60;;;;;;;;;;5037609;28;20460;-71
2023/08/09 09:31:38;;;;;;;2.30;1.37;;;;;;;;;;5037900;28;20981;-70
2023/08/09 09:34:06;;;;;;;2.33;1.20;;;;;;;;;;5031921;28;20556;-70
2023/08/09 09:36:33;;;;;;;2.23;1.20;;;;;;;;;;5035002;28;20469;-71
2023/08/09 09:39:00;;;;;;;2.63;1.27;;;;;;;;;;5038892;28;20450;-71
2023/08/09 09:41:27;;;;;;;2.20;1.20;;;;;;;;;;5041973;28;21028;-71
2023/08/09 09:43:54;;;;;;;2.50;1.23;;;;;;;;;;5038324;28;20489;-70
2023/08/09 09:46:22;;;;;;;3.20;1.30;;;;;;;;;;5040289;28;20492;-71
2023/08/09 09:48:49;;;;;;;2.27;1.30;;;;;;;;;;5038459;28;20525;-71
2023/08/09 09:51:17;;;;;;;2.47;1.80;;;;;;;;;;5040463;28;20457;-71
2023/08/09 09:53:44;;;;;;;1.33;1.03;;;;;;;;;;5041109;28;20539;-70
2023/08/09 09:56:13;;;;;;;2.13;1.30;;;;;;;;;;5041528;28;20473;-70
2023/08/09 09:58:41;;;;;;;3.03;1.20;;;;;;;;;;5047636;28;20453;-71
2023/08/09 10:01:08;;;;;;;2.40;1.40;;;;;;;;;;5041734;28;20492;-70
2023/08/09 10:03:37;;;;;;;3.50;1.53;;;;;;;;;;5041933;28;20454;-69
2023/08/09 10:06:04;;;;;;;2.70;1.50;;;;;;;;;;5042063;28;20466;-70
2023/08/09 10:08:31;;;;;;;1.50;1.40;;;;;;;;;;5037743;28;20487;-70
2023/08/09 10:10:59;;;;;;;5.30;1.53;;;;;;;;;;5037524;28;20537;-70
2023/08/09 10:13:26;;;;;;;1.57;1.20;;;;;;;;;;5040436;28;20523;-70
2023/08/09 10:15:56;;;;;;;2.23;1.70;;;;;;;;;;5044316;28;20488;-70
2023/08/09 10:18:25;;;;;;;2.50;1.40;;;;;;;;;;5040739;28;20481;-70
2023/08/09 10:20:55;;;;;;;2.80;1.50;;;;;;;;;;5038345;28;20536;-71
2023/08/09 10:23:22;;;;;;;5.90;1.90;;;;;;;;;;5035058;28;20449;-71
2023/08/09 10:25:48;;;;;;;1.63;1.23;;;;;;;;;;5035291;28;20454;-71
2023/08/09 10:28:15;;;;;;;1.30;1.17;;;;;;;;;;5036926;28;20517;-71
2023/08/09 10:30:47;;;;;;;2.27;1.70;;;;;;;;;;5037709;28;20459;-71
2023/08/09 10:33:18;;;;;;;2.13;1.40;;;;;;;;;;5039560;28;20521;-71
2023/08/09 10:35:46;;;;;;;2.13;1.40;;;;;;;;;;5040143;28;20581;-71
2023/08/09 10:38:12;;;;;;;1.47;1.30;;;;;;;;;;5033590;28;20473;-70
2023/08/09 10:40:40;;;;;;;1.80;1.20;;;;;;;;;;5037490;28;20467;-71
2023/08/09 10:43:08;;;;;;;2.30;1.63;;;;;;;;;;5036668;28;20454;-71
2023/08/09 10:45:34;;;;;;;3.20;1.80;;;;;;;;;;5036314;28;20458;-73
2023/08/09 10:51:16;;;;;;;2.40;1.43;;;;;;;;;;5155787;27;21252;-67
2023/08/09 10:53:50;;;;;;;1.63;1.50;;;;;;;;;;5151255;27;20457;-68
2023/08/09 10:56:28;;;;;;;3.20;1.47;;;;;;;;;;5152649;27;20540;-67
2023/08/09 10:58:54;;;;;;;1.73;1.30;;;;;;;;;;5154943;27;20476;-67
2023/08/09 11:01:25;;;;;;;2.23;1.50;;;;;;;;;;5155869;27;20484;-67
2023/08/09 11:03:52;;;;;;;2.33;1.57;;;;;;;;;;5156979;27;20482;-68
2023/08/09 11:06:32;;;;;;;3.00;1.20;;;;;;;;;;5157953;27;20455;-68
2023/08/09 11:09:05;;;;;;;2.23;1.30;;;;;;;;;;5153998;27;20506;-69
2023/08/09 11:11:31;;;;;;;1.90;1.30;;;;;;;;;;5151332;27;20449;-67
2023/08/09 11:13:58;;;;;;;3.20;1.50;;;;;;;;;;5155902;27;20449;-68
2023/08/09 11:16:24;;;;;;;1.70;1.20;;;;;;;;;;5154325;27;21237;-68
2023/08/09 11:18:58;;;;;;;1.90;1.40;;;;;;;;;;5162289;27;20560;-67
2023/08/09 11:21:25;;;;;;;1.90;1.30;;;;;;;;;;5158725;27;20980;-68
2023/08/09 11:23:57;;;;;;;1.57;1.23;;;;;;;;;;5150266;27;21221;-68
2023/08/09 11:26:23;;;;;;;2.07;1.30;;;;;;;;;;5158632;27;20444;-68
2023/08/09 11:28:50;;;;;;;2.20;1.50;;;;;;;;;;5157748;27;20461;-68
2023/08/09 11:31:16;;;;;;;3.40;1.30;;;;;;;;;;5157056;27;20453;-68
2023/08/09 11:33:45;;;;;;;3.03;1.63;;;;;;;;;;5146612;27;20490;-68
2023/08/09 11:36:11;;;;;;;3.30;1.50;;;;;;;;;;5159110;27;20486;-68
2023/08/09 11:38:38;;;;;;;2.27;1.23;;;;;;;;;;5143421;27;20465;-68
2023/08/09 11:41:06;;;;;;;1.80;1.40;;;;;;;;;;5135946;27;21064;-68
2023/08/09 11:43:32;;;;;;;3.10;1.60;;;;;;;;;;5130072;27;20536;-68
2023/08/09 11:45:58;;;;;;;2.23;1.20;;;;;;;;;;5135925;27;20603;-68
2023/08/09 11:48:26;;;;;;;3.20;1.60;;;;;;;;;;5129552;27;20479;-68
2023/08/09 11:51:02;;;;;;;2.37;1.80;;;;;;;;;;5140828;27;20488;-68
2023/08/09 11:53:29;;;;;;;2.93;1.30;;;;;;;;;;5133373;27;20460;-68
2023/08/09 11:55:58;;;;;;;1.90;1.20;;;;;;;;;;5127168;27;21017;-68
2023/08/09 11:58:29;;;;;;;3.20;1.40;;;;;;;;;;5136234;28;20533;-68
2023/08/09 12:00:58;;;;;;;1.67;1.30;;;;;;;;;;5129426;27;20458;-68
2023/08/09 12:03:25;;;;;;;2.73;1.80;;;;;;;;;;5112311;27;20472;-68
2023/08/09 12:05:52;;;;;;;1.90;1.30;;;;;;;;;;5114414;28;20480;-68
2023/08/09 12:08:18;;;;;;;2.07;1.80;;;;;;;;;;5114260;27;20474;-67
2023/08/09 12:10:45;;;;;;;4.17;1.80;;;;;;;;;;5119760;27;20577;-68
2023/08/09 12:13:11;;;;;;;2.60;1.50;;;;;;;;;;5115881;27;20519;-68
2023/08/09 12:15:39;;;;;;;2.50;1.43;;;;;;;;;;5121422;28;20450;-68
2023/08/09 12:18:05;;;;;;;3.30;1.97;;;;;;;;;;5121928;27;20545;-68
2023/08/09 12:20:32;;;;;;;4.70;1.43;;;;;;;;;;5125689;27;20505;-68
2023/08/09 12:22:58;;;;;;;1.90;1.40;;;;;;;;;;5141867;27;20441;-68
2023/08/09 12:25:25;;;;;;;2.70;1.40;;;;;;;;;;5128134;27;20508;-68
2023/08/09 12:27:51;;;;;;;3.03;1.73;;;;;;;;;;5131000;27;20445;-68
2023/08/09 12:30:19;;;;;;;1.30;1.20;;;;;;;;;;5137619;27;20483;-68
2023/08/09 12:32:47;;;;;;;2.10;1.57;;;;;;;;;;5130671;27;20755;-67
2023/08/09 12:35:14;;;;;;;2.23;1.60;;;;;;;;;;5137871;27;20499;-68
2023/08/09 12:37:41;;;;;;;3.10;1.70;;;;;;;;;;5138697;27;20451;-67
2023/08/09 12:40:09;;;;;;;2.20;1.47;;;;;;;;;;5127747;27;21041;-67
2023/08/09 12:42:36;;;;;;;1.73;1.40;;;;;;;;;;5132663;27;20441;-68
2023/08/09 12:45:04;;;;;;;2.60;1.60;;;;;;;;;;5148025;27;20453;-67
2023/08/09 12:47:30;;;;;;;2.50;1.50;;;;;;;;;;5133724;27;20492;-68
2023/08/09 12:49:58;;;;;;;2.20;1.63;;;;;;;;;;5127744;27;20528;-68
2023/08/09 12:52:25;;;;;;;2.97;1.27;;;;;;;;;;5140024;27;20441;-67
2023/08/09 12:54:51;;;;;;;2.03;1.10;;;;;;;;;;5141095;27;20506;-68
2023/08/09 12:57:17;;;;;;;1.90;1.50;;;;;;;;;;5135816;27;20467;-69
2023/08/09 12:59:44;;;;;;;1.67;1.30;;;;;;;;;;5133342;27;20501;-68
2023/08/09 13:02:11;;;;;;;4.97;1.70;;;;;;;;;;5137284;27;20453;-68
2023/08/09 13:04:38;;;;;;;1.77;1.40;;;;;;;;;;5142249;27;21227;-68
2023/08/09 13:07:05;;;;;;;2.93;1.40;;;;;;;;;;5140515;27;20474;-68
2023/08/09 13:09:32;;;;;;;5.57;1.70;;;;;;;;;;5132048;27;21079;-68
2023/08/09 13:12:05;;;;;;;1.83;1.40;;;;;;;;;;5136827;27;20457;-68
2023/08/09 13:14:31;;;;;;;3.40;1.90;;;;;;;;;;5137896;27;21007;-68
2023/08/09 13:16:58;;;;;;;2.33;1.40;;;;;;;;;;5130615;27;20464;-68
2023/08/09 13:19:24;;;;;;;1.80;1.40;;;;;;;;;;5141460;27;20446;-68
2023/08/09 13:21:50;;;;;;;2.23;1.40;;;;;;;;;;5138017;27;20468;-68
2023/08/09 13:24:18;;;;;;;3.37;1.67;;;;;;;;;;5126569;27;20457;-67
2023/08/09 13:26:45;;;;;;;1.90;1.30;;;;;;;;;;5133834;27;20532;-68
2023/08/09 13:29:11;;;;;;;2.40;1.40;;;;;;;;;;5129079;27;20887;-67
2023/08/09 13:31:37;;;;;;;2.03;1.30;;;;;;;;;;5126239;27;20512;-68
2023/08/09 13:34:04;;;;;;;2.87;1.90;;;;;;;;;;5129921;27;20472;-69
2023/08/09 13:36:30;;;;;;;1.70;1.20;;;;;;;;;;5133282;27;21086;-68
2023/08/09 13:38:57;;;;;;;2.43;1.40;;;;;;;;;;5129135;27;20518;-68
2023/08/09 13:41:25;;;;;;;1.80;1.40;;;;;;;;;;5136726;27;20464;-68
2023/08/09 13:43:51;;;;;;;2.00;1.30;;;;;;;;;;5123114;27;20480;-68
2023/08/09 13:46:18;;;;;;;2.10;1.47;;;;;;;;;;5136533;27;20454;-68
2023/08/09 13:48:44;;;;;;;5.20;1.63;;;;;;;;;;5136876;27;20492;-68
2023/08/09 13:51:10;;;;;;;1.77;1.43;;;;;;;;;;5137550;27;20485;-68
2023/08/09 13:53:37;;;;;;;2.23;1.80;;;;;;;;;;5135850;27;20485;-68
2023/08/09 13:56:03;;;;;;;1.83;1.20;;;;;;;;;;5139523;27;20458;-68
2023/08/09 13:58:31;;;;;;;2.03;1.23;;;;;;;;;;5136521;27;20453;-68
2023/08/09 14:00:58;;;;;;;2.53;1.33;;;;;;;;;;5139383;27;20484;-68
2023/08/09 14:03:25;;;;;;;2.47;1.70;;;;;;;;;;5139173;27;20449;-69
2023/08/09 14:05:51;;;;;;;2.30;1.40;;;;;;;;;;5136839;27;20541;-68
2023/08/09 14:08:18;;;;;;;1.67;1.37;;;;;;;;;;5144595;27;20658;-68
2023/08/09 14:10:44;;;;;;;2.17;1.53;;;;;;;;;;5135757;27;21028;-68
2023/08/09 14:13:11;;;;;;;2.63;1.83;;;;;;;;;;5125985;27;20474;-69
2023/08/09 14:15:39;;;;;;;1.50;1.30;;;;;;;;;;5126741;27;20493;-68
2023/08/09 14:18:05;;;;;;;2.03;1.70;;;;;;;;;;5121134;27;20926;-69
2023/08/09 14:20:32;;;;;;;2.40;1.60;;;;;;;;;;5129944;27;20446;-68
2023/08/09 14:22:58;;;;;;;1.90;1.60;;;;;;;;;;5140077;27;20497;-69
2023/08/09 14:25:25;;;;;;;2.73;1.60;;;;;;;;;;5133921;27;20488;-67
2023/08/09 14:27:52;;;;;;;1.93;1.40;;;;;;;;;;5139618;27;20481;-66
2023/08/09 14:30:19;;;;;;;2.60;1.57;;;;;;;;;;5134484;27;20485;-68
2023/08/09 14:32:46;;;;;;;2.17;1.50;;;;;;;;;;5138265;27;20732;-67
2023/08/09 14:35:16;;;;;;;1.87;1.27;;;;;;;;;;5125864;27;20465;-68
2023/08/09 14:37:42;;;;;;;2.17;1.40;;;;;;;;;;5131060;27;20465;-68
2023/08/09 14:40:10;;;;;;;2.50;1.40;;;;;;;;;;5134360;27;20940;-68
2023/08/09 14:42:37;;;;;;;3.40;1.80;;;;;;;;;;5125582;27;20457;-67
2023/08/09 14:45:04;;;;;;;2.10;1.50;;;;;;;;;;5134033;27;20521;-68